CYMOCYER

Guest
Details From CYMO - MOOSONEE
To CYER - Ft Severn
Flight Number -
Tags generated
Created
Modified
Stats Distance 386 nm / 716 km
Max Altitude 20,900 ft / 6,370 m
Waypoints 4
Social Downloads 1
Likes 0
Share VATSIM

Download

Looking for another format? Having issues loading an existing format? Contact us
Advertisement - Login to hide

Notes

Basic altitude profile: - Ascent Rate: 2500ft/min - Ascent Speed: 250kts - Cruise Altitude: 35000ft - Cruise Speed: 420kts - Descent Rate: 1500ft/min - Descent Speed: 250kts Options: - Use NATs: yes - Use PACOTS: yes - Use low airways: yes - Use high airways: yes

Route

CYMO YMO NCA28 TASLI CYER

ID Type Via Altitude Latitude Longitude Leg Dist Tot Dist Heading (true) Name
O CYMO APT - 0 ft / 0 m 51.29210˚ -80.60828˚ - 0 nm - MOOSONEE
YMO VOR - 0 ft / 0 m 51.29147˚ -80.60728˚ 0 nm 0 nm 135° / 135° MOOSONEE VOR-DME
TASLI FIX NCA28 (AWY-HI) 20,900 ft / 6,370 m 55.22222˚ -85.00000˚ 283 nm 283 nm 328° / 324° -
O CYER APT - 0 ft / 0 m 56.01898˚ -87.67640˚ 102 nm 386 nm 299° / 297° Ft Severn

Altitude Profile

Advertisement - Login to hide

Weather


0- 5 10 15 20 25 30 35+ Temperature / ° C

Clouds and Precipitation
Forecast for 2017-12-11 00:00 UTC. Updated an hour ago

Ground ~20,000 ft ~40,000 ft Winds

CYMO

Details ICAO CYMO (YMO)
Name MOOSONEE
Region Canada
Timezone America/Toronto (UTC-5.0)
Stats Elevation 30 ft / 9 m (AMSL)
Location 51.292095° -80.608276°
Runways 2
Magnetic Variation 12.114° W

METAR

CYMO 110000Z AUTO 24009KT 7SM -SN OVC037 M21/M24 A2994 RMK SLP141

Decode

TAF

TAF CYMO 102338Z 1100/1112 26008KT P6SM FEW020 BKN040 TEMPO 1100/1112 5SM -SN OVC020 RMK FCST BASED ON AUTO OBS. NXT FCST BY 110600Z

Decode

Departure Runways

ID Width Length Bearing (true) Bearing (mag) Surface Threshold Offset Overrun Length
06 100 ft / 30 m 4,004 ft / 1,220 m 43.12° 55.23° Asphalt 0 ft / 0 m 0 ft / 0 m
14 100 ft / 30 m 3,508 ft / 1,069 m 127.35° 139.46° Dirt 0 ft / 0 m 0 ft / 0 m
24 100 ft / 30 m 4,004 ft / 1,220 m 223.13° 235.24° Asphalt 0 ft / 0 m 0 ft / 0 m
32 100 ft / 30 m 3,508 ft / 1,069 m 307.35° 319.46° Dirt 0 ft / 0 m 0 ft / 0 m

CYER

Details ICAO CYER (YER)
Name Ft Severn
Region Canada
Timezone America/Toronto (UTC-5.0)
Stats Elevation 42 ft / 13 m (AMSL)
Location 56.018979° -87.676399°
Runways 1
Magnetic Variation 7.895° W

METAR

CYER 110000Z AUTO 25009KT 9SM -SN OVC010 M21/M23 A2985 RMK SLP112

Decode

TAF

Not found

Destination Runways

ID Width Length Bearing (true) Bearing (mag) Surface Threshold Offset Overrun Length
14 98 ft / 30 m 3,878 ft / 1,182 m 142.70° 150.59° Gravel 0 ft / 0 m 0 ft / 0 m
32 98 ft / 30 m 3,878 ft / 1,182 m 322.71° 330.60° Gravel 0 ft / 0 m 0 ft / 0 m

Popular Alternatives